sensor_id;sensor_type;location;lat;lon;timestamp;P1;durP1;ratioP1;P2;durP2;ratioP2
24034;SDS011;12242;50.952;4.678;2022-07-06T00:02:10;724.80;;;664.00;;
24034;SDS011;12242;50.952;4.678;2022-07-06T00:04:37;744.95;;;682.00;;
24034;SDS011;12242;50.952;4.678;2022-07-06T00:07:05;723.92;;;661.58;;
24034;SDS011;12242;50.952;4.678;2022-07-06T00:09:33;691.10;;;632.05;;
24034;SDS011;12242;50.952;4.678;2022-07-06T00:12:00;719.40;;;656.25;;
24034;SDS011;12242;50.952;4.678;2022-07-06T00:14:28;686.78;;;627.42;;
24034;SDS011;12242;50.952;4.678;2022-07-06T00:16:55;664.55;;;606.67;;
24034;SDS011;12242;50.952;4.678;2022-07-06T00:19:23;640.85;;;584.60;;
24034;SDS011;12242;50.952;4.678;2022-07-06T00:21:50;715.40;;;652.97;;
24034;SDS011;12242;50.952;4.678;2022-07-06T00:24:17;706.38;;;645.90;;
24034;SDS011;12242;50.952;4.678;2022-07-06T00:26:45;675.58;;;616.80;;
24034;SDS011;12242;50.952;4.678;2022-07-06T00:29:13;674.03;;;614.88;;
24034;SDS011;12242;50.952;4.678;2022-07-06T00:31:43;703.58;;;641.50;;
24034;SDS011;12242;50.952;4.678;2022-07-06T00:34:10;637.40;;;583.47;;
24034;SDS011;12242;50.952;4.678;2022-07-06T00:36:38;677.15;;;620.08;;
24034;SDS011;12242;50.952;4.678;2022-07-06T00:39:09;685.28;;;626.33;;
24034;SDS011;12242;50.952;4.678;2022-07-06T00:41:36;699.50;;;640.42;;
24034;SDS011;12242;50.952;4.678;2022-07-06T00:44:07;681.33;;;623.05;;
24034;SDS011;12242;50.952;4.678;2022-07-06T00:46:35;680.58;;;623.88;;
24034;SDS011;12242;50.952;4.678;2022-07-06T00:49:03;678.88;;;622.05;;
24034;SDS011;12242;50.952;4.678;2022-07-06T00:51:32;635.90;;;579.08;;
24034;SDS011;12242;50.952;4.678;2022-07-06T00:54:03;675.42;;;612.33;;
24034;SDS011;12242;50.952;4.678;2022-07-06T00:56:33;694.22;;;627.95;;
24034;SDS011;12242;50.952;4.678;2022-07-06T00:59:02;652.30;;;592.67;;
24034;SDS011;12242;50.952;4.678;2022-07-06T01:01:32;663.95;;;603.55;;
24034;SDS011;12242;50.952;4.678;2022-07-06T01:04:02;690.30;;;629.25;;
24034;SDS011;12242;50.952;4.678;2022-07-06T01:06:31;673.13;;;612.72;;
24034;SDS011;12242;50.952;4.678;2022-07-06T01:08:59;659.83;;;600.83;;
24034;SDS011;12242;50.952;4.678;2022-07-06T01:11:27;649.92;;;591.60;;
24034;SDS011;12242;50.952;4.678;2022-07-06T01:13:57;612.78;;;557.17;;
24034;SDS011;12242;50.952;4.678;2022-07-06T01:16:29;645.97;;;586.42;;
24034;SDS011;12242;50.952;4.678;2022-07-06T01:18:57;605.95;;;549.28;;
24034;SDS011;12242;50.952;4.678;2022-07-06T01:21:25;602.92;;;546.63;;
24034;SDS011;12242;50.952;4.678;2022-07-06T01:23:56;650.72;;;593.13;;
24034;SDS011;12242;50.952;4.678;2022-07-06T01:26:23;635.40;;;579.47;;
24034;SDS011;12242;50.952;4.678;2022-07-06T01:28:53;651.28;;;592.72;;
24034;SDS011;12242;50.952;4.678;2022-07-06T01:31:23;667.13;;;607.35;;
24034;SDS011;12242;50.952;4.678;2022-07-06T01:33:53;658.53;;;599.95;;
24034;SDS011;12242;50.952;4.678;2022-07-06T01:36:23;656.30;;;597.40;;
24034;SDS011;12242;50.952;4.678;2022-07-06T01:38:56;648.38;;;591.67;;
24034;SDS011;12242;50.952;4.678;2022-07-06T01:41:25;667.58;;;607.55;;
24034;SDS011;12242;50.952;4.678;2022-07-06T01:43:54;639.95;;;583.63;;
24034;SDS011;12242;50.952;4.678;2022-07-06T01:46:21;656.88;;;597.72;;
24034;SDS011;12242;50.952;4.678;2022-07-06T01:48:52;646.47;;;588.78;;
24034;SDS011;12242;50.952;4.678;2022-07-06T01:51:22;660.90;;;601.83;;
24034;SDS011;12242;50.952;4.678;2022-07-06T01:53:50;666.83;;;607.33;;
24034;SDS011;12242;50.952;4.678;2022-07-06T01:56:20;665.30;;;606.40;;
24034;SDS011;12242;50.952;4.678;2022-07-06T01:58:50;633.50;;;576.75;;
24034;SDS011;12242;50.952;4.678;2022-07-06T02:01:19;667.25;;;608.00;;
24034;SDS011;12242;50.952;4.678;2022-07-06T02:03:47;637.35;;;580.92;;
24034;SDS011;12242;50.952;4.678;2022-07-06T02:06:15;644.80;;;586.92;;
24034;SDS011;12242;50.952;4.678;2022-07-06T02:08:46;684.88;;;622.75;;
24034;SDS011;12242;50.952;4.678;2022-07-06T02:11:13;721.40;;;655.53;;
24034;SDS011;12242;50.952;4.678;2022-07-06T02:13:44;713.15;;;647.40;;
24034;SDS011;12242;50.952;4.678;2022-07-06T02:16:11;651.13;;;593.63;;
24034;SDS011;12242;50.952;4.678;2022-07-06T02:18:42;683.08;;;621.97;;
24034;SDS011;12242;50.952;4.678;2022-07-06T02:21:09;681.03;;;620.38;;
24034;SDS011;12242;50.952;4.678;2022-07-06T02:23:39;678.05;;;617.22;;
24034;SDS011;12242;50.952;4.678;2022-07-06T02:26:06;639.38;;;582.70;;
24034;SDS011;12242;50.952;4.678;2022-07-06T02:28:37;677.55;;;616.40;;
24034;SDS011;12242;50.952;4.678;2022-07-06T02:31:05;682.63;;;621.65;;
24034;SDS011;12242;50.952;4.678;2022-07-06T02:33:35;676.65;;;616.03;;
24034;SDS011;12242;50.952;4.678;2022-07-06T02:36:02;669.67;;;609.78;;
24034;SDS011;12242;50.952;4.678;2022-07-06T02:38:29;685.65;;;624.17;;
24034;SDS011;12242;50.952;4.678;2022-07-06T02:40:57;637.75;;;580.35;;
24034;SDS011;12242;50.952;4.678;2022-07-06T02:43:25;656.05;;;597.95;;
24034;SDS011;12242;50.952;4.678;2022-07-06T02:45:52;647.10;;;588.58;;
24034;SDS011;12242;50.952;4.678;2022-07-06T02:48:20;640.22;;;583.03;;
24034;SDS011;12242;50.952;4.678;2022-07-06T02:50:51;682.10;;;621.03;;
24034;SDS011;12242;50.952;4.678;2022-07-06T02:53:18;644.00;;;586.78;;
24034;SDS011;12242;50.952;4.678;2022-07-06T02:55:46;665.33;;;605.05;;
24034;SDS011;12242;50.952;4.678;2022-07-06T02:58:14;673.47;;;612.17;;
24034;SDS011;12242;50.952;4.678;2022-07-06T03:00:41;649.78;;;591.60;;
24034;SDS011;12242;50.952;4.678;2022-07-06T03:03:09;625.47;;;569.97;;
24034;SDS011;12242;50.952;4.678;2022-07-06T03:05:37;638.78;;;581.33;;
24034;SDS011;12242;50.952;4.678;2022-07-06T03:08:04;651.03;;;592.67;;
24034;SDS011;12242;50.952;4.678;2022-07-06T03:10:31;681.83;;;620.88;;
24034;SDS011;12242;50.952;4.678;2022-07-06T03:12:59;683.20;;;621.88;;
24034;SDS011;12242;50.952;4.678;2022-07-06T03:15:26;670.03;;;609.53;;
24034;SDS011;12242;50.952;4.678;2022-07-06T03:17:58;665.47;;;605.40;;
24034;SDS011;12242;50.952;4.678;2022-07-06T03:20:26;672.72;;;612.60;;
24034;SDS011;12242;50.952;4.678;2022-07-06T03:22:53;656.60;;;597.20;;
24034;SDS011;12242;50.952;4.678;2022-07-06T03:25:24;670.20;;;609.80;;
24034;SDS011;12242;50.952;4.678;2022-07-06T03:27:54;647.72;;;590.22;;
24034;SDS011;12242;50.952;4.678;2022-07-06T03:30:21;649.90;;;591.92;;
24034;SDS011;12242;50.952;4.678;2022-07-06T03:32:48;668.78;;;608.63;;
24034;SDS011;12242;50.952;4.678;2022-07-06T03:35:16;650.17;;;592.95;;
24034;SDS011;12242;50.952;4.678;2022-07-06T03:37:43;665.33;;;605.95;;
24034;SDS011;12242;50.952;4.678;2022-07-06T03:40:15;694.30;;;630.33;;
24034;SDS011;12242;50.952;4.678;2022-07-06T03:42:43;677.75;;;616.83;;
24034;SDS011;12242;50.952;4.678;2022-07-06T03:45:10;660.63;;;599.92;;
24034;SDS011;12242;50.952;4.678;2022-07-06T03:47:37;655.42;;;596.03;;
24034;SDS011;12242;50.952;4.678;2022-07-06T03:50:05;689.00;;;625.95;;
24034;SDS011;12242;50.952;4.678;2022-07-06T03:52:33;657.85;;;597.83;;
24034;SDS011;12242;50.952;4.678;2022-07-06T03:55:07;643.60;;;584.83;;
24034;SDS011;12242;50.952;4.678;2022-07-06T03:57:37;687.60;;;625.65;;
24034;SDS011;12242;50.952;4.678;2022-07-06T04:00:08;662.25;;;601.90;;
24034;SDS011;12242;50.952;4.678;2022-07-06T04:02:36;680.83;;;617.97;;
24034;SDS011;12242;50.952;4.678;2022-07-06T04:05:04;663.42;;;602.65;;
24034;SDS011;12242;50.952;4.678;2022-07-06T04:07:31;659.30;;;598.63;;
24034;SDS011;12242;50.952;4.678;2022-07-06T04:09:59;674.05;;;612.15;;
24034;SDS011;12242;50.952;4.678;2022-07-06T04:12:26;672.67;;;609.50;;
24034;SDS011;12242;50.952;4.678;2022-07-06T04:14:56;641.67;;;582.28;;
24034;SDS011;12242;50.952;4.678;2022-07-06T04:17:28;654.55;;;593.95;;
24034;SDS011;12242;50.952;4.678;2022-07-06T04:20:14;668.15;;;605.67;;
24034;SDS011;12242;50.952;4.678;2022-07-06T04:22:42;672.58;;;608.90;;
24034;SDS011;12242;50.952;4.678;2022-07-06T04:25:09;652.25;;;591.97;;
24034;SDS011;12242;50.952;4.678;2022-07-06T04:27:37;633.75;;;575.08;;
24034;SDS011;12242;50.952;4.678;2022-07-06T04:30:05;624.40;;;567.33;;
24034;SDS011;12242;50.952;4.678;2022-07-06T04:32:32;655.58;;;594.67;;
24034;SDS011;12242;50.952;4.678;2022-07-06T04:35:01;619.58;;;563.70;;
24034;SDS011;12242;50.952;4.678;2022-07-06T04:37:30;639.38;;;581.70;;
24034;SDS011;12242;50.952;4.678;2022-07-06T04:40:00;624.78;;;566.88;;
24034;SDS011;12242;50.952;4.678;2022-07-06T04:42:31;624.53;;;568.83;;
24034;SDS011;12242;50.952;4.678;2022-07-06T04:44:59;605.00;;;548.85;;
24034;SDS011;12242;50.952;4.678;2022-07-06T04:47:28;638.03;;;581.20;;
24034;SDS011;12242;50.952;4.678;2022-07-06T04:49:55;602.80;;;547.55;;
24034;SDS011;12242;50.952;4.678;2022-07-06T04:52:23;614.88;;;558.03;;
24034;SDS011;12242;50.952;4.678;2022-07-06T04:54:50;587.30;;;533.20;;
24034;SDS011;12242;50.952;4.678;2022-07-06T04:57:20;621.95;;;563.92;;
24034;SDS011;12242;50.952;4.678;2022-07-06T04:59:52;620.58;;;562.22;;
24034;SDS011;12242;50.952;4.678;2022-07-06T05:02:20;619.65;;;561.92;;
24034;SDS011;12242;50.952;4.678;2022-07-06T05:04:50;589.00;;;533.17;;
24034;SDS011;12242;50.952;4.678;2022-07-06T05:07:17;595.40;;;540.45;;
24034;SDS011;12242;50.952;4.678;2022-07-06T05:09:49;597.63;;;541.95;;
24034;SDS011;12242;50.952;4.678;2022-07-06T05:12:19;615.25;;;558.78;;
24034;SDS011;12242;50.952;4.678;2022-07-06T05:14:46;615.35;;;558.05;;
24034;SDS011;12242;50.952;4.678;2022-07-06T05:17:14;611.00;;;555.38;;
24034;SDS011;12242;50.952;4.678;2022-07-06T05:19:41;606.65;;;550.67;;
24034;SDS011;12242;50.952;4.678;2022-07-06T05:22:08;611.35;;;553.13;;
24034;SDS011;12242;50.952;4.678;2022-07-06T05:24:36;596.90;;;543.97;;
24034;SDS011;12242;50.952;4.678;2022-07-06T05:27:03;618.42;;;563.50;;
24034;SDS011;12242;50.952;4.678;2022-07-06T05:29:31;642.75;;;585.92;;
24034;SDS011;12242;50.952;4.678;2022-07-06T05:32:08;671.05;;;610.55;;
24034;SDS011;12242;50.952;4.678;2022-07-06T05:34:38;641.97;;;585.03;;
24034;SDS011;12242;50.952;4.678;2022-07-06T05:37:06;643.88;;;585.95;;
24034;SDS011;12242;50.952;4.678;2022-07-06T05:39:36;650.15;;;592.75;;
24034;SDS011;12242;50.952;4.678;2022-07-06T05:42:08;634.03;;;576.60;;
24034;SDS011;12242;50.952;4.678;2022-07-06T05:44:40;626.80;;;570.42;;
24034;SDS011;12242;50.952;4.678;2022-07-06T05:47:07;612.15;;;556.80;;
24034;SDS011;12242;50.952;4.678;2022-07-06T05:49:53;639.60;;;582.22;;
24034;SDS011;12242;50.952;4.678;2022-07-06T05:52:40;623.15;;;567.20;;
24034;SDS011;12242;50.952;4.678;2022-07-06T05:55:13;642.75;;;585.70;;
24034;SDS011;12242;50.952;4.678;2022-07-06T05:57:45;644.85;;;588.22;;
24034;SDS011;12242;50.952;4.678;2022-07-06T06:00:12;683.15;;;623.33;;
24034;SDS011;12242;50.952;4.678;2022-07-06T06:02:42;681.10;;;623.08;;
24034;SDS011;12242;50.952;4.678;2022-07-06T06:05:10;691.20;;;632.00;;
24034;SDS011;12242;50.952;4.678;2022-07-06T06:07:46;713.17;;;651.45;;
24034;SDS011;12242;50.952;4.678;2022-07-06T06:10:19;710.33;;;649.17;;
24034;SDS011;12242;50.952;4.678;2022-07-06T06:12:51;718.88;;;655.30;;
24034;SDS011;12242;50.952;4.678;2022-07-06T06:15:18;731.00;;;667.67;;
24034;SDS011;12242;50.952;4.678;2022-07-06T06:17:51;737.35;;;672.92;;
24034;SDS011;12242;50.952;4.678;2022-07-06T06:20:19;700.05;;;639.72;;
24034;SDS011;12242;50.952;4.678;2022-07-06T06:22:53;697.67;;;637.47;;
24034;SDS011;12242;50.952;4.678;2022-07-06T06:25:29;676.50;;;616.58;;
24034;SDS011;12242;50.952;4.678;2022-07-06T06:28:01;672.95;;;612.22;;
24034;SDS011;12242;50.952;4.678;2022-07-06T06:30:31;711.97;;;645.85;;
24034;SDS011;12242;50.952;4.678;2022-07-06T06:33:06;693.17;;;630.00;;
24034;SDS011;12242;50.952;4.678;2022-07-06T06:35:41;674.63;;;612.33;;
24034;SDS011;12242;50.952;4.678;2022-07-06T06:38:14;693.33;;;629.65;;
24034;SDS011;12242;50.952;4.678;2022-07-06T06:40:47;775.85;;;705.65;;
24034;SDS011;12242;50.952;4.678;2022-07-06T06:43:15;761.10;;;691.58;;
24034;SDS011;12242;50.952;4.678;2022-07-06T06:45:42;757.53;;;687.72;;
24034;SDS011;12242;50.952;4.678;2022-07-06T06:48:11;819.63;;;745.33;;
24034;SDS011;12242;50.952;4.678;2022-07-06T06:50:43;847.10;;;769.42;;
24034;SDS011;12242;50.952;4.678;2022-07-06T06:53:12;892.72;;;809.58;;
24034;SDS011;12242;50.952;4.678;2022-07-06T06:55:40;946.58;;;856.42;;
24034;SDS011;12242;50.952;4.678;2022-07-06T06:58:07;942.97;;;849.70;;
24034;SDS011;12242;50.952;4.678;2022-07-06T07:00:35;931.05;;;839.80;;
24034;SDS011;12242;50.952;4.678;2022-07-06T07:03:03;931.38;;;838.50;;
24034;SDS011;12242;50.952;4.678;2022-07-06T07:05:31;961.30;;;862.47;;
24034;SDS011;12242;50.952;4.678;2022-07-06T07:08:01;984.25;;;878.45;;
24034;SDS011;12242;50.952;4.678;2022-07-06T07:10:33;939.95;;;837.47;;
24034;SDS011;12242;50.952;4.678;2022-07-06T07:13:01;946.53;;;842.42;;
24034;SDS011;12242;50.952;4.678;2022-07-06T07:15:28;943.45;;;840.88;;
24034;SDS011;12242;50.952;4.678;2022-07-06T07:17:59;923.70;;;820.65;;
24034;SDS011;12242;50.952;4.678;2022-07-06T07:20:26;842.35;;;751.25;;
24034;SDS011;12242;50.952;4.678;2022-07-06T07:22:56;866.92;;;779.45;;
24034;SDS011;12242;50.952;4.678;2022-07-06T07:25:24;867.78;;;777.40;;
24034;SDS011;12242;50.952;4.678;2022-07-06T07:27:52;903.08;;;811.65;;
24034;SDS011;12242;50.952;4.678;2022-07-06T07:30:22;916.75;;;822.00;;
24034;SDS011;12242;50.952;4.678;2022-07-06T07:32:50;859.97;;;768.55;;
24034;SDS011;12242;50.952;4.678;2022-07-06T07:35:18;956.67;;;856.03;;
24034;SDS011;12242;50.952;4.678;2022-07-06T07:37:48;896.08;;;800.20;;
24034;SDS011;12242;50.952;4.678;2022-07-06T07:40:16;973.97;;;869.80;;
24034;SDS011;12242;50.952;4.678;2022-07-06T07:42:44;982.83;;;876.88;;
24034;SDS011;12242;50.952;4.678;2022-07-06T07:45:13;991.63;;;884.85;;
24034;SDS011;12242;50.952;4.678;2022-07-06T07:47:41;927.22;;;826.80;;
24034;SDS011;12242;50.952;4.678;2022-07-06T07:50:08;919.80;;;820.60;;
24034;SDS011;12242;50.952;4.678;2022-07-06T07:52:36;894.75;;;797.03;;
24034;SDS011;12242;50.952;4.678;2022-07-06T07:55:04;896.67;;;799.08;;
24034;SDS011;12242;50.952;4.678;2022-07-06T07:57:54;922.50;;;822.58;;
24034;SDS011;12242;50.952;4.678;2022-07-06T08:00:23;871.83;;;779.35;;
24034;SDS011;12242;50.952;4.678;2022-07-06T08:02:54;951.33;;;848.65;;
24034;SDS011;12242;50.952;4.678;2022-07-06T08:05:22;759.22;;;674.00;;
24034;SDS011;12242;50.952;4.678;2022-07-06T08:07:50;683.75;;;599.97;;
24034;SDS011;12242;50.952;4.678;2022-07-06T08:10:20;798.78;;;689.30;;
24034;SDS011;12242;50.952;4.678;2022-07-06T08:12:48;798.28;;;670.85;;
24034;SDS011;12242;50.952;4.678;2022-07-06T08:15:19;848.53;;;729.35;;
24034;SDS011;12242;50.952;4.678;2022-07-06T08:17:46;756.05;;;661.78;;
24034;SDS011;12242;50.952;4.678;2022-07-06T08:20:14;848.35;;;760.60;;
24034;SDS011;12242;50.952;4.678;2022-07-06T08:22:42;827.63;;;740.00;;
24034;SDS011;12242;50.952;4.678;2022-07-06T08:25:10;960.50;;;849.35;;
24034;SDS011;12242;50.952;4.678;2022-07-06T08:27:38;893.65;;;787.47;;
24034;SDS011;12242;50.952;4.678;2022-07-06T08:30:05;885.05;;;788.47;;
24034;SDS011;12242;50.952;4.678;2022-07-06T08:32:36;929.38;;;832.33;;
24034;SDS011;12242;50.952;4.678;2022-07-06T08:35:28;1013.72;;;868.53;;
24034;SDS011;12242;50.952;4.678;2022-07-06T08:37:55;1012.92;;;873.03;;
24034;SDS011;12242;50.952;4.678;2022-07-06T08:40:23;1085.35;;;884.03;;
24034;SDS011;12242;50.952;4.678;2022-07-06T08:42:53;952.22;;;842.97;;
24034;SDS011;12242;50.952;4.678;2022-07-06T08:45:24;973.63;;;865.75;;
24034;SDS011;12242;50.952;4.678;2022-07-06T08:48:03;951.38;;;849.30;;
24034;SDS011;12242;50.952;4.678;2022-07-06T08:50:33;983.28;;;876.33;;
24034;SDS011;12242;50.952;4.678;2022-07-06T08:53:03;970.72;;;862.67;;
24034;SDS011;12242;50.952;4.678;2022-07-06T08:55:31;968.13;;;865.67;;
24034;SDS011;12242;50.952;4.678;2022-07-06T08:58:00;1025.63;;;879.35;;
24034;SDS011;12242;50.952;4.678;2022-07-06T09:00:28;1124.18;;;904.45;;
24034;SDS011;12242;50.952;4.678;2022-07-06T09:02:57;1046.60;;;877.13;;
24034;SDS011;12242;50.952;4.678;2022-07-06T09:05:25;1032.55;;;877.53;;
24034;SDS011;12242;50.952;4.678;2022-07-06T09:07:54;1026.70;;;881.65;;
24034;SDS011;12242;50.952;4.678;2022-07-06T09:10:25;1138.35;;;902.00;;
24034;SDS011;12242;50.952;4.678;2022-07-06T09:13:00;1148.68;;;885.67;;
24034;SDS011;12242;50.952;4.678;2022-07-06T09:15:30;1009.78;;;867.05;;
24034;SDS011;12242;50.952;4.678;2022-07-06T09:17:59;1129.40;;;876.88;;
24034;SDS011;12242;50.952;4.678;2022-07-06T09:20:29;1064.88;;;853.60;;
24034;SDS011;12242;50.952;4.678;2022-07-06T09:22:58;968.65;;;807.78;;
24034;SDS011;12242;50.952;4.678;2022-07-06T09:25:27;920.15;;;791.28;;
24034;SDS011;12242;50.952;4.678;2022-07-06T09:27:58;987.50;;;820.53;;
24034;SDS011;12242;50.952;4.678;2022-07-06T09:30:27;895.50;;;751.08;;
24034;SDS011;12242;50.952;4.678;2022-07-06T09:32:56;924.50;;;765.00;;
24034;SDS011;12242;50.952;4.678;2022-07-06T09:35:27;862.47;;;721.53;;
24034;SDS011;12242;50.952;4.678;2022-07-06T09:38:00;974.60;;;799.60;;
24034;SDS011;12242;50.952;4.678;2022-07-06T09:40:31;907.75;;;738.70;;
24034;SDS011;12242;50.952;4.678;2022-07-06T09:45:38;835.17;;;734.45;;
24034;SDS011;12242;50.952;4.678;2022-07-06T09:48:12;817.25;;;703.03;;
24034;SDS011;12242;50.952;4.678;2022-07-06T09:50:52;760.47;;;669.40;;
24034;SDS011;12242;50.952;4.678;2022-07-06T09:53:24;755.63;;;666.17;;
24034;SDS011;12242;50.952;4.678;2022-07-06T09:55:53;799.13;;;700.95;;
24034;SDS011;12242;50.952;4.678;2022-07-06T09:58:22;778.55;;;666.58;;
24034;SDS011;12242;50.952;4.678;2022-07-06T10:01:26;830.92;;;699.92;;
24034;SDS011;12242;50.952;4.678;2022-07-06T10:03:57;860.70;;;713.42;;
24034;SDS011;12242;50.952;4.678;2022-07-06T10:06:25;851.65;;;708.40;;
24034;SDS011;12242;50.952;4.678;2022-07-06T10:08:53;863.10;;;739.65;;
24034;SDS011;12242;50.952;4.678;2022-07-06T10:11:23;772.90;;;683.78;;
24034;SDS011;12242;50.952;4.678;2022-07-06T10:13:55;785.63;;;684.33;;
24034;SDS011;12242;50.952;4.678;2022-07-06T10:16:26;834.67;;;739.22;;
24034;SDS011;12242;50.952;4.678;2022-07-06T10:18:54;763.72;;;681.92;;
24034;SDS011;12242;50.952;4.678;2022-07-06T10:21:25;833.40;;;750.83;;
24034;SDS011;12242;50.952;4.678;2022-07-06T10:23:55;817.08;;;735.47;;
24034;SDS011;12242;50.952;4.678;2022-07-06T10:26:26;874.72;;;786.33;;
24034;SDS011;12242;50.952;4.678;2022-07-06T10:28:55;910.97;;;816.33;;
24034;SDS011;12242;50.952;4.678;2022-07-06T10:31:23;879.58;;;788.30;;
24034;SDS011;12242;50.952;4.678;2022-07-06T10:33:59;849.22;;;762.67;;
24034;SDS011;12242;50.952;4.678;2022-07-06T10:36:28;955.95;;;848.33;;
24034;SDS011;12242;50.952;4.678;2022-07-06T10:38:57;1039.53;;;872.25;;
24034;SDS011;12242;50.952;4.678;2022-07-06T10:41:45;1011.95;;;858.08;;
24034;SDS011;12242;50.952;4.678;2022-07-06T10:44:16;985.28;;;848.58;;
24034;SDS011;12242;50.952;4.678;2022-07-06T10:46:52;1013.45;;;850.28;;
24034;SDS011;12242;50.952;4.678;2022-07-06T10:49:22;963.50;;;817.85;;
24034;SDS011;12242;50.952;4.678;2022-07-06T10:52:10;956.42;;;806.47;;
24034;SDS011;12242;50.952;4.678;2022-07-06T10:54:38;969.85;;;818.63;;
24034;SDS011;12242;50.952;4.678;2022-07-06T10:57:08;998.70;;;838.53;;
24034;SDS011;12242;50.952;4.678;2022-07-06T10:59:39;1042.90;;;847.85;;
24034;SDS011;12242;50.952;4.678;2022-07-06T11:02:14;916.47;;;796.15;;
24034;SDS011;12242;50.952;4.678;2022-07-06T11:04:47;913.30;;;799.78;;
24034;SDS011;12242;50.952;4.678;2022-07-06T11:07:17;1135.23;;;880.70;;
24034;SDS011;12242;50.952;4.678;2022-07-06T11:09:58;991.25;;;796.40;;
24034;SDS011;12242;50.952;4.678;2022-07-06T11:12:26;926.28;;;782.47;;
24034;SDS011;12242;50.952;4.678;2022-07-06T11:14:54;916.72;;;780.40;;
24034;SDS011;12242;50.952;4.678;2022-07-06T11:17:21;822.13;;;732.05;;
24034;SDS011;12242;50.952;4.678;2022-07-06T11:19:50;872.85;;;774.80;;
24034;SDS011;12242;50.952;4.678;2022-07-06T11:22:21;839.30;;;747.95;;
24034;SDS011;12242;50.952;4.678;2022-07-06T11:24:53;886.85;;;790.58;;
24034;SDS011;12242;50.952;4.678;2022-07-06T11:27:24;847.40;;;746.90;;
24034;SDS011;12242;50.952;4.678;2022-07-06T11:29:52;854.80;;;764.33;;
24034;SDS011;12242;50.952;4.678;2022-07-06T11:32:25;851.70;;;765.05;;
24034;SDS011;12242;50.952;4.678;2022-07-06T11:34:53;915.47;;;821.30;;
24034;SDS011;12242;50.952;4.678;2022-07-06T11:37:21;930.53;;;835.15;;
24034;SDS011;12242;50.952;4.678;2022-07-06T11:39:50;969.17;;;860.40;;
24034;SDS011;12242;50.952;4.678;2022-07-06T11:42:18;1075.85;;;879.17;;
24034;SDS011;12242;50.952;4.678;2022-07-06T11:44:46;1029.47;;;871.45;;
24034;SDS011;12242;50.952;4.678;2022-07-06T11:47:13;1105.10;;;881.03;;
24034;SDS011;12242;50.952;4.678;2022-07-06T11:49:50;1206.00;;;909.55;;
24034;SDS011;12242;50.952;4.678;2022-07-06T11:52:18;1037.20;;;863.10;;
24034;SDS011;12242;50.952;4.678;2022-07-06T11:54:45;1073.20;;;884.08;;
24034;SDS011;12242;50.952;4.678;2022-07-06T11:57:13;1159.85;;;899.63;;
24034;SDS011;12242;50.952;4.678;2022-07-06T11:59:41;1079.50;;;864.80;;
24034;SDS011;12242;50.952;4.678;2022-07-06T12:02:10;1026.72;;;846.83;;
24034;SDS011;12242;50.952;4.678;2022-07-06T12:04:40;975.22;;;842.83;;
24034;SDS011;12242;50.952;4.678;2022-07-06T12:07:10;1049.03;;;860.45;;
24034;SDS011;12242;50.952;4.678;2022-07-06T12:09:41;887.35;;;790.10;;
24034;SDS011;12242;50.952;4.678;2022-07-06T12:12:10;931.03;;;830.15;;
24034;SDS011;12242;50.952;4.678;2022-07-06T12:14:40;949.17;;;829.63;;
24034;SDS011;12242;50.952;4.678;2022-07-06T12:17:12;940.00;;;821.28;;
24034;SDS011;12242;50.952;4.678;2022-07-06T12:19:43;955.58;;;845.28;;
24034;SDS011;12242;50.952;4.678;2022-07-06T12:22:11;954.42;;;842.88;;
24034;SDS011;12242;50.952;4.678;2022-07-06T12:24:42;994.30;;;851.55;;
24034;SDS011;12242;50.952;4.678;2022-07-06T12:27:17;1081.28;;;865.00;;
24034;SDS011;12242;50.952;4.678;2022-07-06T12:29:48;1011.15;;;835.17;;
24034;SDS011;12242;50.952;4.678;2022-07-06T12:37:35;1105.35;;;869.67;;
24034;SDS011;12242;50.952;4.678;2022-07-06T12:40:17;1106.38;;;877.58;;
24034;SDS011;12242;50.952;4.678;2022-07-06T12:42:47;1001.15;;;835.13;;
24034;SDS011;12242;50.952;4.678;2022-07-06T12:45:15;1013.38;;;850.25;;
24034;SDS011;12242;50.952;4.678;2022-07-06T12:47:59;1099.22;;;879.95;;
24034;SDS011;12242;50.952;4.678;2022-07-06T12:50:38;1032.20;;;862.42;;
24034;SDS011;12242;50.952;4.678;2022-07-06T12:53:06;988.88;;;858.78;;
24034;SDS011;12242;50.952;4.678;2022-07-06T12:56:13;1102.50;;;894.67;;
24034;SDS011;12242;50.952;4.678;2022-07-06T12:58:57;1148.68;;;906.65;;
24034;SDS011;12242;50.952;4.678;2022-07-06T13:01:25;1201.32;;;928.78;;
24034;SDS011;12242;50.952;4.678;2022-07-06T13:03:55;1111.32;;;882.30;;
24034;SDS011;12242;50.952;4.678;2022-07-06T13:06:41;1049.80;;;872.53;;
24034;SDS011;12242;50.952;4.678;2022-07-06T13:09:11;1150.45;;;911.05;;
24034;SDS011;12242;50.952;4.678;2022-07-06T13:11:41;1175.65;;;904.08;;
24034;SDS011;12242;50.952;4.678;2022-07-06T13:14:09;1211.97;;;922.53;;
24034;SDS011;12242;50.952;4.678;2022-07-06T13:16:38;1204.03;;;905.13;;
24034;SDS011;12242;50.952;4.678;2022-07-06T13:19:05;1056.28;;;864.97;;
24034;SDS011;12242;50.952;4.678;2022-07-06T13:21:36;1171.57;;;908.50;;
24034;SDS011;12242;50.952;4.678;2022-07-06T13:24:06;1194.25;;;912.17;;
24034;SDS011;12242;50.952;4.678;2022-07-06T13:26:34;1142.65;;;882.58;;
24034;SDS011;12242;50.952;4.678;2022-07-06T13:29:02;1177.15;;;900.17;;
24034;SDS011;12242;50.952;4.678;2022-07-06T13:31:30;1223.57;;;922.30;;
24034;SDS011;12242;50.952;4.678;2022-07-06T13:34:00;1253.78;;;926.63;;
24034;SDS011;12242;50.952;4.678;2022-07-06T13:36:28;1079.82;;;843.33;;
24034;SDS011;12242;50.952;4.678;2022-07-06T13:38:56;1060.32;;;842.38;;
24034;SDS011;12242;50.952;4.678;2022-07-06T13:41:24;1073.93;;;858.15;;
24034;SDS011;12242;50.952;4.678;2022-07-06T13:43:53;1046.13;;;827.47;;
24034;SDS011;12242;50.952;4.678;2022-07-06T13:46:23;1052.25;;;844.60;;
24034;SDS011;12242;50.952;4.678;2022-07-06T13:48:51;993.55;;;804.45;;
24034;SDS011;12242;50.952;4.678;2022-07-06T13:51:19;886.65;;;779.63;;
24034;SDS011;12242;50.952;4.678;2022-07-06T13:53:47;841.75;;;746.80;;
24034;SDS011;12242;50.952;4.678;2022-07-06T13:56:16;817.60;;;728.45;;
24034;SDS011;12242;50.952;4.678;2022-07-06T13:58:46;802.78;;;719.42;;
24034;SDS011;12242;50.952;4.678;2022-07-06T14:01:15;877.67;;;781.75;;
24034;SDS011;12242;50.952;4.678;2022-07-06T14:03:51;821.55;;;732.83;;
24034;SDS011;12242;50.952;4.678;2022-07-06T14:06:25;833.17;;;746.63;;
24034;SDS011;12242;50.952;4.678;2022-07-06T14:08:52;856.10;;;766.50;;
24034;SDS011;12242;50.952;4.678;2022-07-06T14:11:20;870.83;;;776.38;;
24034;SDS011;12242;50.952;4.678;2022-07-06T14:13:48;842.15;;;752.45;;
24034;SDS011;12242;50.952;4.678;2022-07-06T14:16:15;839.40;;;750.83;;
24034;SDS011;12242;50.952;4.678;2022-07-06T14:18:43;817.20;;;731.38;;